Time;durP1;ratioP1;P1;durP2;ratioP2;P2;SDS_P1;SDS_P2;PMS_P1;PMS_P2;Temp;Humidity;BMP_temperature;BMP_pressure;BME280_temperature;BME280_humidity;BME280_pressure;Samples;Min_cycle;Max_cycle;Signal;HPM_P1;HPM_P2
2023/09/18 00:11:07;;;;;;;9.30;7.90;;;;;;;-147.20;100.00;63046.97;31552220;28;20203;-70
2023/09/18 00:26:07;;;;;;;9.47;7.77;;;;;;;-147.20;100.00;63046.97;31550314;28;20044;-74
2023/09/18 00:41:08;;;;;;;9.57;8.48;;;;;;;-147.20;100.00;63046.97;31549359;28;20033;-66
2023/09/18 00:56:08;;;;;;;10.23;9.10;;;;;;;-147.20;100.00;63046.97;31547127;28;20440;-66
2023/09/18 01:11:26;;;;;;;9.68;8.18;;;;;;;-147.20;100.00;63046.97;31546829;28;20393;-65
2023/09/18 01:26:26;;;;;;;10.95;8.63;;;;;;;-147.20;100.00;63046.97;31545464;28;20033;-69
2023/09/18 01:41:27;;;;;;;8.85;7.93;;;;;;;-147.20;100.00;63046.97;31542030;28;20066;-65
2023/09/18 01:56:27;;;;;;;10.00;8.45;;;;;;;-147.20;100.00;63046.97;31541301;28;20086;-68
2023/09/18 02:11:28;;;;;;;10.13;8.55;;;;;;;-147.20;100.00;63046.97;31540384;28;20124;-71
2023/09/18 02:26:29;;;;;;;12.00;9.18;;;;;;;-147.20;100.00;63046.97;31540568;28;20120;-75
2023/09/18 02:41:29;;;;;;;10.45;8.88;;;;;;;-147.20;100.00;63046.97;31538296;28;20543;-65
2023/09/18 02:56:30;;;;;;;12.40;9.45;;;;;;;-147.20;100.00;63046.97;31536063;28;20053;-66
2023/09/18 03:11:30;;;;;;;13.23;9.57;;;;;;;-147.20;100.00;63046.97;31532680;28;22421;-69
2023/09/18 03:26:30;;;;;;;11.25;9.32;;;;;;;-147.20;100.00;63046.97;31531773;28;20356;-65
2023/09/18 03:41:33;;;;;;;13.23;10.63;;;;;;;-147.20;100.00;63046.97;31530498;28;20033;-64
2023/09/18 03:56:34;;;;;;;13.60;10.82;;;;;;;-147.20;100.00;63046.97;31535482;28;20049;-64
2023/09/18 04:11:35;;;;;;;17.02;12.40;;;;;;;-147.20;100.00;63046.97;31549117;28;20083;-63
2023/09/18 04:26:35;;;;;;;18.65;13.13;;;;;;;-147.20;100.00;63046.97;31546197;28;20413;-63
2023/09/18 04:41:35;;;;;;;21.73;13.30;;;;;;;-147.20;100.00;63046.97;31545109;28;20040;-65
2023/09/18 04:56:37;;;;;;;14.63;11.90;;;;;;;-147.20;100.00;63046.97;31543383;28;20079;-70
2023/09/18 05:11:37;;;;;;;13.82;12.13;;;;;;;-147.20;100.00;63046.97;31541457;28;20036;-68
2023/09/18 05:26:37;;;;;;;16.73;11.82;;;;;;;-147.20;100.00;63046.97;31542444;28;20029;-64
2023/09/18 05:41:41;;;;;;;15.40;11.60;;;;;;;-147.20;100.00;63046.97;31539870;28;20480;-73
2023/09/18 05:56:41;;;;;;;13.07;10.82;;;;;;;-147.20;100.00;63046.97;31536676;28;20111;-64
2023/09/18 06:11:42;;;;;;;12.68;11.10;;;;;;;-147.20;100.00;63046.97;31538570;28;20436;-65
2023/09/18 06:26:42;;;;;;;14.40;9.65;;;;;;;-147.20;100.00;63046.97;31536365;28;20025;-74
2023/09/18 06:41:43;;;;;;;10.10;8.73;;;;;;;-147.20;100.00;63046.97;31535648;28;20033;-74
2023/09/18 06:56:44;;;;;;;11.38;8.30;;;;;;;-147.20;100.00;63046.97;31533785;28;20049;-70
2023/09/18 07:11:44;;;;;;;11.93;9.07;;;;;;;-147.20;100.00;63046.97;31532327;28;20068;-65
2023/09/18 07:26:46;;;;;;;10.23;8.45;;;;;;;-147.20;100.00;63046.97;31532463;28;20252;-64
2023/09/18 07:41:50;;;;;;;9.90;7.60;;;;;;;-147.20;100.00;63046.97;31550251;28;20087;-65
2023/09/18 07:56:50;;;;;;;9.18;7.13;;;;;;;-147.20;100.00;63046.97;31547864;28;20045;-64
2023/09/18 08:11:55;;;;;;;9.57;7.38;;;;;;;-147.20;100.00;63046.97;31547207;28;20036;-64
2023/09/18 08:26:56;;;;;;;12.15;8.07;;;;;;;-147.20;100.00;63046.97;31545386;28;20049;-63
2023/09/18 08:42:02;;;;;;;11.32;8.32;;;;;;;-147.20;100.00;63046.97;31545886;28;20044;-69
2023/09/18 08:57:07;;;;;;;9.67;8.43;;;;;;;-147.20;100.00;63046.97;31544046;28;20088;-64
2023/09/18 09:12:08;;;;;;;9.03;7.53;;;;;;;-147.20;100.00;63046.97;31545014;28;20295;-70
2023/09/18 09:27:12;;;;;;;10.73;6.55;;;;;;;-147.20;100.00;63046.97;31542485;28;20298;-66
2023/09/18 09:42:13;;;;;;;7.83;7.03;;;;;;;-147.20;100.00;63046.97;31539821;28;20072;-65
2023/09/18 09:57:13;;;;;;;9.40;6.63;;;;;;;-147.20;100.00;63046.97;31533606;28;20132;-64
2023/09/18 10:12:20;;;;;;;6.95;6.20;;;;;;;-147.20;100.00;63046.97;31534492;28;20508;-65
2023/09/18 10:27:22;;;;;;;8.30;5.70;;;;;;;-147.20;100.00;63046.97;31536373;28;20036;-71
2023/09/18 10:42:23;;;;;;;7.57;5.33;;;;;;;-147.20;100.00;63046.97;31535475;28;20029;-67
2023/09/18 10:57:24;;;;;;;5.65;4.85;;;;;;;-147.20;100.00;63046.97;31534291;28;20485;-67
2023/09/18 11:12:45;;;;;;;5.72;5.13;;;;;;;-147.20;100.00;63046.97;31548811;28;20037;-66
2023/09/18 11:27:57;;;;;;;5.60;4.50;;;;;;;-147.20;100.00;63046.97;31551838;28;20076;-66
2023/09/18 11:43:18;;;;;;;6.10;4.80;;;;;;;-147.20;100.00;63046.97;31549289;28;20095;-69
2023/09/18 11:58:22;;;;;;;6.50;5.10;;;;;;;-147.20;100.00;63046.97;31548578;28;20057;-68
2023/09/18 12:13:27;;;;;;;5.47;3.80;;;;;;;-147.20;100.00;63046.97;31548200;28;20072;-69
2023/09/18 12:28:28;;;;;;;5.53;3.47;;;;;;;-147.20;100.00;63046.97;31545964;28;20036;-69
2023/09/18 12:43:31;;;;;;;5.50;3.20;;;;;;;-147.20;100.00;63046.97;31546188;28;20409;-69
2023/09/18 12:58:32;;;;;;;7.27;3.40;;;;;;;-147.20;100.00;63046.97;31543631;28;20071;-65
2023/09/18 13:13:32;;;;;;;7.85;3.70;;;;;;;-147.20;100.00;63046.97;31542908;28;20037;-70
2023/09/18 13:28:35;;;;;;;7.78;4.10;;;;;;;-147.20;100.00;63046.97;31539024;28;20049;-67
2023/09/18 13:43:35;;;;;;;6.90;4.23;;;;;;;-147.20;100.00;63046.97;31539483;28;20029;-70
2023/09/18 13:58:41;;;;;;;6.35;4.15;;;;;;;-147.20;100.00;63046.97;31539830;28;20383;-69
2023/09/18 14:13:42;;;;;;;7.13;4.53;;;;;;;-147.20;100.00;63046.97;31538296;28;20040;-70
2023/09/18 14:28:44;;;;;;;6.95;4.95;;;;;;;-147.20;100.00;63046.97;31536711;28;20108;-67
2023/09/18 14:43:45;;;;;;;10.52;5.70;;;;;;;-147.20;100.00;63046.97;31534112;28;20068;-67
2023/09/18 14:58:45;;;;;;;6.18;5.28;;;;;;;-147.20;100.00;63046.97;31531743;28;24584;-69
2023/09/18 15:13:45;;;;;;;8.32;5.55;;;;;;;-147.20;100.00;63046.97;31533370;28;20379;-65
2023/09/18 15:28:46;;;;;;;9.25;6.63;;;;;;;-147.20;100.00;63046.97;31531440;28;20428;-68
2023/09/18 15:43:46;;;;;;;8.73;6.40;;;;;;;-147.20;100.00;63046.97;31528588;28;20363;-64
2023/09/18 15:58:48;;;;;;;10.73;7.38;;;;;;;-147.20;100.00;63046.97;31542480;28;20494;-67
2023/09/18 16:13:52;;;;;;;8.38;7.55;;;;;;;-147.20;100.00;63046.97;31548931;28;20130;-65
2023/09/18 16:28:53;;;;;;;10.50;7.68;;;;;;;-147.20;100.00;63046.97;31546777;28;20021;-66
2023/09/18 16:43:53;;;;;;;12.52;7.75;;;;;;;-147.20;100.00;63046.97;31545633;28;20025;-63
2023/09/18 16:58:54;;;;;;;11.93;7.78;;;;;;;-147.20;100.00;63046.97;31542695;28;20045;-64
2023/09/18 17:13:54;;;;;;;11.00;7.80;;;;;;;-147.20;100.00;63046.97;31542442;28;20033;-71
2023/09/18 17:43:01;;;;;;;;;;;;;;;23.11;51.86;99419.09;31653247;27;97813;-71
2023/09/18 17:58:02;;;;;;;12.52;8.98;;;;;;;22.64;53.03;99424.50;31586168;27;97251;-71
2023/09/18 18:13:02;;;;;;;11.13;9.73;;;;;;;22.33;54.30;99429.00;31478201;27;98179;-76
2023/09/18 18:28:03;;;;;;;12.82;9.25;;;;;;;22.04;55.34;99418.59;31499708;27;96882;-79
2023/09/18 18:43:04;;;;;;;11.60;10.40;;;;;;;21.72;56.50;99421.41;31463856;27;97412;-70
2023/09/18 18:58:06;;;;;;;13.45;10.32;;;;;;;21.36;57.87;99426.59;31412774;27;97483;-73
2023/09/18 19:13:06;;;;;;;13.30;11.20;;;;;;;21.19;58.95;99438.41;31394888;27;97611;-69
2023/09/18 19:28:07;;;;;;;24.17;16.33;;;;;;;20.96;59.75;99417.91;31460907;27;97459;-73
2023/09/18 19:43:07;;;;;;;16.48;12.25;;;;;;;20.71;60.64;99413.88;31450442;27;97023;-66
2023/09/18 19:58:09;;;;;;;13.65;11.35;;;;;;;20.60;61.39;99388.59;31455168;27;96810;-69
2023/09/18 20:13:10;;;;;;;;;;;;;;;20.56;61.84;99382.06;31458650;27;96745;-72
2023/09/18 20:28:10;;;;;;;16.70;11.43;;;;;;;20.52;62.49;99388.25;31457751;27;98452;-75
2023/09/18 20:43:11;;;;;;;16.95;14.23;;;;;;;20.53;62.66;99396.09;31339861;27;97515;-65
2023/09/18 20:58:12;;;;;;;14.38;11.70;;;;;;;20.45;62.99;99389.25;31336867;27;97451;-69
2023/09/18 21:13:13;;;;;;;14.77;12.73;;;;;;;20.43;63.30;99387.88;31334899;27;97120;-64
2023/09/18 21:28:13;;;;;;;22.88;13.55;;;;;;;20.40;63.70;99369.47;31343239;27;97290;-66
2023/09/18 21:43:14;;;;;;;16.65;13.10;;;;;;;20.23;63.97;99362.25;31343058;27;114345;-65
2023/09/18 21:58:14;;;;;;;15.33;12.30;;;;;;;20.26;64.60;99402.31;31362446;27;97805;-65
2023/09/18 22:13:15;;;;;;;14.85;11.98;;;;;;;20.46;64.86;99411.69;31459062;27;97387;-70
2023/09/18 22:28:16;;;;;;;11.63;9.20;;;;;;;20.69;64.79;99390.88;31463236;27;97798;-68
2023/09/18 22:43:54;;;;;;;10.87;7.93;;;;;;;20.74;64.75;99374.69;31351874;27;96731;-66
2023/09/18 22:58:54;;;;;;;12.13;6.93;;;;;;;20.70;64.79;99376.25;31350751;27;97641;-65
2023/09/18 23:13:56;;;;;;;9.65;6.35;;;;;;;20.69;65.05;99382.75;31349627;27;97392;-66
2023/09/18 23:28:56;;;;;;;6.83;3.60;;;;;;;20.52;64.93;99397.16;31347232;27;97198;-68
2023/09/18 23:43:56;;;;;;;6.43;2.83;;;;;;;20.32;65.17;99399.66;31345569;27;112193;-68
2023/09/18 23:58:57;;;;;;;5.95;2.65;;;;;;;20.01;65.54;99407.41;31343596;27;113294;-67
